Time;durP1;ratioP1;P1;durP2;ratioP2;P2;SDS_P1;SDS_P2;PMS_P1;PMS_P2;Temp;Humidity;BMP_temperature;BMP_pressure;BME280_temperature;BME280_humidity;BME280_pressure;Samples;Min_cycle;Max_cycle;Signal;HPM_P1;HPM_P2
2023/05/04 00:00:26;;;;;;;14.70;10.18;;;;;;;;;;5047836;28;20850;-64
2023/05/04 00:02:52;;;;;;;14.95;9.65;;;;;;;;;;5046574;28;20037;-65
2023/05/04 00:05:19;;;;;;;24.25;17.25;;;;;;;;;;5037733;28;20021;-59
2023/05/04 00:07:45;;;;;;;17.35;13.15;;;;;;;;;;5046826;28;20032;-62
2023/05/04 00:10:11;;;;;;;29.40;16.67;;;;;;;;;;5038205;28;20029;-60
2023/05/04 00:12:37;;;;;;;13.82;10.43;;;;;;;;;;5048768;28;20379;-60
2023/05/04 00:15:03;;;;;;;16.27;12.23;;;;;;;;;;5049038;28;20376;-60
2023/05/04 00:17:29;;;;;;;15.65;11.88;;;;;;;;;;5048857;28;20017;-64
2023/05/04 00:19:56;;;;;;;16.15;11.20;;;;;;;;;;5048855;28;20166;-57
2023/05/04 00:22:22;;;;;;;20.23;14.55;;;;;;;;;;5048808;28;20021;-62
2023/05/04 00:24:48;;;;;;;11.50;8.70;;;;;;;;;;5048819;28;20094;-59
2023/05/04 00:27:14;;;;;;;25.80;20.83;;;;;;;;;;5048997;28;20479;-60
2023/05/04 00:29:40;;;;;;;30.65;22.00;;;;;;;;;;5048550;28;20071;-60
2023/05/04 00:32:06;;;;;;;15.85;10.32;;;;;;;;;;5048533;28;20075;-60
2023/05/04 00:34:33;;;;;;;17.35;12.07;;;;;;;;;;5048629;28;20021;-60
2023/05/04 00:36:59;;;;;;;17.17;10.25;;;;;;;;;;5048747;28;20025;-60
2023/05/04 00:39:26;;;;;;;18.88;13.05;;;;;;;;;;5048861;28;20021;-60
2023/05/04 00:41:52;;;;;;;21.83;13.40;;;;;;;;;;5049199;28;20025;-60
2023/05/04 00:44:19;;;;;;;20.05;13.95;;;;;;;;;;5048421;28;20040;-63
2023/05/04 00:46:45;;;;;;;16.27;12.52;;;;;;;;;;5048754;28;20029;-59
2023/05/04 00:49:11;;;;;;;16.13;11.30;;;;;;;;;;5039997;28;20464;-59
2023/05/04 00:51:39;;;;;;;17.98;10.85;;;;;;;;;;5043983;28;20040;-59
2023/05/04 00:54:05;;;;;;;18.60;11.63;;;;;;;;;;5047468;28;20056;-60
2023/05/04 00:56:32;;;;;;;14.95;11.43;;;;;;;;;;5048261;28;20025;-59
2023/05/04 00:58:59;;;;;;;16.77;10.60;;;;;;;;;;5048218;28;20037;-59
2023/05/04 01:01:25;;;;;;;14.32;10.07;;;;;;;;;;5048560;28;20029;-59
2023/05/04 01:03:51;;;;;;;15.15;10.25;;;;;;;;;;5047867;28;20412;-59
2023/05/04 01:06:20;;;;;;;14.23;9.02;;;;;;;;;;5048002;28;20059;-59
2023/05/04 01:08:50;;;;;;;12.45;9.48;;;;;;;;;;5048403;28;20025;-60
2023/05/04 01:11:20;;;;;;;19.35;9.88;;;;;;;;;;5050045;28;20053;-59
2023/05/04 01:13:47;;;;;;;11.23;10.02;;;;;;;;;;5038299;28;20033;-66
2023/05/04 01:16:13;;;;;;;10.90;8.82;;;;;;;;;;5052001;28;20104;-58
2023/05/04 01:18:39;;;;;;;16.25;10.13;;;;;;;;;;5051759;28;20438;-63
2023/05/04 01:21:05;;;;;;;14.35;9.95;;;;;;;;;;5052060;28;20048;-59
2023/05/04 01:23:31;;;;;;;26.75;19.30;;;;;;;;;;5052165;28;20471;-59
2023/05/04 01:26:17;;;;;;;13.32;10.38;;;;;;;;;;5051625;28;20229;-60
2023/05/04 01:28:53;;;;;;;13.18;9.50;;;;;;;;;;5051947;28;20032;-59
2023/05/04 01:31:21;;;;;;;12.57;8.80;;;;;;;;;;5027428;28;20568;-60
2023/05/04 01:33:48;;;;;;;13.30;8.90;;;;;;;;;;5051599;28;20033;-60
2023/05/04 01:36:14;;;;;;;11.90;9.02;;;;;;;;;;5052398;28;20025;-60
2023/05/04 01:38:41;;;;;;;11.15;9.30;;;;;;;;;;5051790;28;20032;-61
2023/05/04 01:41:07;;;;;;;10.95;8.70;;;;;;;;;;5051982;28;20107;-59
2023/05/04 01:43:33;;;;;;;11.77;9.40;;;;;;;;;;5051513;28;20033;-63
2023/05/04 01:45:59;;;;;;;12.52;8.98;;;;;;;;;;5051389;28;20029;-59
2023/05/04 01:48:25;;;;;;;11.93;9.63;;;;;;;;;;5051603;28;20475;-58
2023/05/04 01:50:51;;;;;;;14.50;10.27;;;;;;;;;;5051713;28;20170;-58
2023/05/04 01:53:17;;;;;;;13.35;9.55;;;;;;;;;;5051230;28;20427;-59
2023/05/04 01:55:44;;;;;;;12.38;9.27;;;;;;;;;;5051281;28;20064;-61
2023/05/04 01:58:10;;;;;;;15.60;11.00;;;;;;;;;;5051127;28;20106;-60
2023/05/04 02:00:36;;;;;;;18.27;12.07;;;;;;;;;;5051226;28;20477;-60
2023/05/04 02:03:02;;;;;;;15.88;12.05;;;;;;;;;;5051179;28;20169;-60
2023/05/04 02:05:28;;;;;;;20.58;13.70;;;;;;;;;;5051372;28;20379;-60
2023/05/04 02:07:54;;;;;;;17.92;11.38;;;;;;;;;;5051143;28;20025;-60
2023/05/04 02:10:20;;;;;;;18.70;12.38;;;;;;;;;;5050848;28;20025;-59
2023/05/04 02:12:46;;;;;;;15.05;11.93;;;;;;;;;;5051254;28;20435;-59
2023/05/04 02:15:12;;;;;;;18.70;12.52;;;;;;;;;;5050704;28;20021;-63
2023/05/04 02:17:38;;;;;;;12.98;11.43;;;;;;;;;;5050897;28;20029;-60
2023/05/04 02:20:05;;;;;;;14.68;10.73;;;;;;;;;;5041277;28;20169;-61
2023/05/04 02:22:31;;;;;;;13.52;9.95;;;;;;;;;;5045662;28;20430;-60
2023/05/04 02:24:57;;;;;;;16.85;10.85;;;;;;;;;;5050319;28;20060;-60
2023/05/04 02:27:23;;;;;;;13.85;10.48;;;;;;;;;;5050794;28;20024;-59
2023/05/04 02:29:49;;;;;;;14.75;10.05;;;;;;;;;;5050535;28;20056;-60
2023/05/04 02:32:15;;;;;;;15.93;10.55;;;;;;;;;;5050408;28;20053;-60
2023/05/04 02:34:41;;;;;;;16.17;10.45;;;;;;;;;;5050418;28;20087;-63
2023/05/04 02:37:07;;;;;;;13.85;10.80;;;;;;;;;;5048178;28;20078;-59
2023/05/04 02:39:33;;;;;;;22.20;10.95;;;;;;;;;;5039866;28;20021;-60
2023/05/04 02:42:00;;;;;;;14.45;10.23;;;;;;;;;;5049919;28;20021;-65
2023/05/04 02:44:27;;;;;;;14.43;10.57;;;;;;;;;;5050382;28;20071;-60
2023/05/04 02:46:53;;;;;;;13.45;10.13;;;;;;;;;;5050778;28;20374;-65
2023/05/04 02:49:19;;;;;;;15.88;11.07;;;;;;;;;;5049634;28;20542;-60
2023/05/04 02:51:46;;;;;;;12.18;10.00;;;;;;;;;;5050627;28;20478;-59
2023/05/04 02:54:12;;;;;;;14.27;9.65;;;;;;;;;;5045745;28;20491;-62
2023/05/04 02:56:38;;;;;;;14.50;10.00;;;;;;;;;;5041785;28;20017;-59
2023/05/04 02:59:04;;;;;;;17.63;10.77;;;;;;;;;;5049909;28;20095;-59
2023/05/04 03:01:30;;;;;;;10.95;9.32;;;;;;;;;;5049943;28;20379;-60
2023/05/04 03:03:56;;;;;;;13.98;9.57;;;;;;;;;;5050043;28;20062;-60
2023/05/04 03:06:22;;;;;;;13.85;10.57;;;;;;;;;;5050283;28;20021;-59
2023/05/04 03:08:48;;;;;;;13.25;9.65;;;;;;;;;;5049936;28;20471;-60
2023/05/04 03:11:15;;;;;;;12.85;10.48;;;;;;;;;;5050159;28;20021;-60
2023/05/04 03:13:41;;;;;;;13.77;10.23;;;;;;;;;;5044401;28;20368;-60
2023/05/04 03:16:07;;;;;;;14.25;9.25;;;;;;;;;;5029948;28;20055;-59
2023/05/04 03:18:33;;;;;;;12.15;9.95;;;;;;;;;;5048492;28;20032;-60
2023/05/04 03:20:59;;;;;;;16.67;12.27;;;;;;;;;;5049714;28;20013;-60
2023/05/04 03:23:25;;;;;;;13.02;10.27;;;;;;;;;;5049403;28;20071;-59
2023/05/04 03:25:51;;;;;;;15.77;10.65;;;;;;;;;;5049373;28;20623;-59
2023/05/04 03:28:18;;;;;;;16.98;12.10;;;;;;;;;;5049599;28;20478;-60
2023/05/04 03:30:44;;;;;;;12.95;11.10;;;;;;;;;;5049905;28;20021;-61
2023/05/04 03:33:10;;;;;;;24.25;12.82;;;;;;;;;;5049426;28;20021;-60
2023/05/04 03:35:36;;;;;;;15.68;11.52;;;;;;;;;;5045971;28;20017;-65
2023/05/04 03:38:02;;;;;;;16.42;11.38;;;;;;;;;;5039694;28;20117;-59
2023/05/04 03:40:28;;;;;;;22.13;11.40;;;;;;;;;;5049006;28;20530;-59
2023/05/04 03:42:54;;;;;;;15.50;12.43;;;;;;;;;;5049267;28;20029;-59
2023/05/04 03:45:20;;;;;;;13.63;12.18;;;;;;;;;;5048486;28;20024;-59
2023/05/04 03:47:46;;;;;;;14.07;11.05;;;;;;;;;;5049487;28;20052;-60
2023/05/04 03:50:13;;;;;;;16.67;10.93;;;;;;;;;;5049357;28;20020;-59
2023/05/04 03:52:39;;;;;;;15.85;11.52;;;;;;;;;;5049481;28;20040;-59
2023/05/04 03:55:05;;;;;;;14.55;10.32;;;;;;;;;;5049200;28;20102;-59
2023/05/04 03:57:31;;;;;;;13.80;10.82;;;;;;;;;;5049290;28;20020;-59
2023/05/04 03:59:57;;;;;;;16.63;11.38;;;;;;;;;;5048840;28;20021;-60
2023/05/04 04:02:24;;;;;;;14.40;11.05;;;;;;;;;;5048811;28;20104;-60
2023/05/04 04:04:50;;;;;;;26.80;14.23;;;;;;;;;;5048563;28;20033;-60
2023/05/04 04:07:16;;;;;;;13.75;10.73;;;;;;;;;;5049216;28;20021;-60
2023/05/04 04:09:42;;;;;;;12.95;10.25;;;;;;;;;;5048546;28;20024;-61
2023/05/04 04:12:08;;;;;;;18.38;10.48;;;;;;;;;;5048951;28;20021;-60
2023/05/04 04:14:34;;;;;;;16.73;12.80;;;;;;;;;;5048924;28;20033;-65
2023/05/04 04:17:00;;;;;;;14.65;10.60;;;;;;;;;;5048410;28;20463;-60
2023/05/04 04:19:26;;;;;;;14.80;10.90;;;;;;;;;;5048503;28;20048;-60
2023/05/04 04:21:52;;;;;;;13.48;9.68;;;;;;;;;;5049170;28;20479;-66
2023/05/04 04:24:18;;;;;;;12.90;10.27;;;;;;;;;;5048705;28;20112;-60
2023/05/04 04:26:44;;;;;;;14.73;9.43;;;;;;;;;;5048535;28;20117;-63
2023/05/04 04:29:11;;;;;;;14.95;11.05;;;;;;;;;;5048286;28;20021;-63
2023/05/04 04:31:38;;;;;;;13.45;10.73;;;;;;;;;;5048549;28;20032;-60
2023/05/04 04:34:05;;;;;;;16.42;11.25;;;;;;;;;;5049044;28;20434;-64
2023/05/04 04:36:31;;;;;;;17.58;10.85;;;;;;;;;;5049004;28;20027;-60
2023/05/04 04:38:57;;;;;;;12.60;10.18;;;;;;;;;;5048329;28;20120;-61
2023/05/04 04:41:23;;;;;;;15.70;11.68;;;;;;;;;;5048755;28;20021;-60
2023/05/04 04:43:49;;;;;;;16.33;12.35;;;;;;;;;;5048363;28;20043;-60
2023/05/04 04:46:16;;;;;;;16.95;11.63;;;;;;;;;;5049765;28;20032;-64
2023/05/04 04:48:42;;;;;;;12.63;9.98;;;;;;;;;;5052639;28;20074;-59
2023/05/04 04:51:11;;;;;;;16.98;11.73;;;;;;;;;;5052156;28;20032;-59
2023/05/04 04:53:38;;;;;;;14.75;10.98;;;;;;;;;;5048542;28;20018;-60
2023/05/04 04:56:04;;;;;;;12.65;10.27;;;;;;;;;;5042190;28;20486;-59
2023/05/04 04:58:31;;;;;;;17.30;12.43;;;;;;;;;;5052449;28;20487;-59
2023/05/04 05:00:57;;;;;;;15.50;12.27;;;;;;;;;;5033724;28;20022;-60
2023/05/04 05:03:23;;;;;;;16.25;13.02;;;;;;;;;;5044285;28;20041;-59
2023/05/04 05:05:49;;;;;;;14.15;12.30;;;;;;;;;;5051562;28;20028;-59
2023/05/04 05:08:16;;;;;;;13.65;10.88;;;;;;;;;;5052663;28;20112;-60
2023/05/04 05:10:42;;;;;;;15.05;11.80;;;;;;;;;;5051711;28;20533;-59
2023/05/04 05:13:08;;;;;;;19.65;11.93;;;;;;;;;;5052170;28;20463;-60
2023/05/04 05:15:34;;;;;;;15.95;12.65;;;;;;;;;;5052328;28;20021;-61
2023/05/04 05:18:00;;;;;;;17.35;11.57;;;;;;;;;;5051766;28;20021;-63
2023/05/04 05:20:26;;;;;;;13.35;10.93;;;;;;;;;;5051748;28;20025;-59
2023/05/04 05:22:52;;;;;;;14.55;11.55;;;;;;;;;;5051503;28;20029;-59
2023/05/04 05:25:19;;;;;;;17.30;12.93;;;;;;;;;;5051926;28;20033;-59
2023/05/04 05:27:45;;;;;;;16.38;12.70;;;;;;;;;;5051945;28;20029;-59
2023/05/04 05:30:11;;;;;;;26.75;19.95;;;;;;;;;;5051675;28;20024;-58
2023/05/04 05:32:37;;;;;;;65.13;44.65;;;;;;;;;;5031718;28;20033;-58
2023/05/04 05:35:04;;;;;;;39.20;27.55;;;;;;;;;;5031629;28;20375;-59
2023/05/04 05:37:31;;;;;;;24.13;18.33;;;;;;;;;;5042394;28;20029;-58
2023/05/04 05:39:57;;;;;;;16.85;12.68;;;;;;;;;;5051666;28;20215;-58
2023/05/04 05:42:23;;;;;;;16.88;13.43;;;;;;;;;;5051479;28;20349;-59
2023/05/04 05:44:49;;;;;;;16.63;12.63;;;;;;;;;;5051319;28;20467;-58
2023/05/04 05:47:16;;;;;;;18.23;12.55;;;;;;;;;;5035203;28;20025;-58
2023/05/04 05:49:42;;;;;;;16.98;12.98;;;;;;;;;;5036183;28;20162;-59
2023/05/04 05:52:08;;;;;;;17.23;13.95;;;;;;;;;;5051270;28;20041;-59
2023/05/04 05:54:34;;;;;;;14.88;12.45;;;;;;;;;;5051121;28;20051;-58
2023/05/04 05:57:01;;;;;;;19.00;14.10;;;;;;;;;;5051068;28;20017;-61
2023/05/04 05:59:27;;;;;;;20.13;14.73;;;;;;;;;;5051200;28;20029;-57
2023/05/04 06:01:53;;;;;;;19.75;14.68;;;;;;;;;;5051478;28;20273;-61
2023/05/04 06:04:19;;;;;;;16.90;13.95;;;;;;;;;;5050885;28;20112;-61
2023/05/04 06:06:45;;;;;;;20.10;14.27;;;;;;;;;;5050877;28;20040;-60
2023/05/04 06:09:12;;;;;;;16.50;13.18;;;;;;;;;;5048203;28;20024;-62
2023/05/04 06:11:38;;;;;;;17.80;14.32;;;;;;;;;;5040154;28;20376;-61
2023/05/04 06:14:04;;;;;;;16.48;13.18;;;;;;;;;;5050942;28;20387;-61
2023/05/04 06:16:30;;;;;;;19.75;14.65;;;;;;;;;;5039049;28;20030;-61
2023/05/04 06:18:56;;;;;;;18.73;14.13;;;;;;;;;;5044889;28;20016;-61
2023/05/04 06:21:22;;;;;;;17.45;15.55;;;;;;;;;;5026122;28;20021;-63
2023/05/04 06:23:48;;;;;;;15.50;13.85;;;;;;;;;;5050565;28;20041;-61
2023/05/04 06:26:14;;;;;;;16.33;13.98;;;;;;;;;;5050642;28;20017;-68
2023/05/04 06:28:40;;;;;;;18.27;14.57;;;;;;;;;;5050718;28;20039;-61
2023/05/04 06:31:06;;;;;;;16.63;13.98;;;;;;;;;;5050234;28;20490;-61
2023/05/04 06:33:32;;;;;;;17.67;13.55;;;;;;;;;;5050390;28;20498;-62
2023/05/04 06:35:58;;;;;;;17.02;12.85;;;;;;;;;;5050437;28;20375;-70
2023/05/04 06:38:24;;;;;;;15.57;13.15;;;;;;;;;;5049819;28;20470;-68
2023/05/04 06:40:50;;;;;;;14.57;12.13;;;;;;;;;;5050315;28;20027;-68
2023/05/04 06:43:16;;;;;;;15.80;13.15;;;;;;;;;;5050455;28;20067;-66
2023/05/04 06:45:42;;;;;;;17.85;12.68;;;;;;;;;;5050486;28;20029;-69
2023/05/04 06:48:08;;;;;;;16.55;13.73;;;;;;;;;;5050052;28;20017;-67
2023/05/04 06:50:35;;;;;;;17.40;14.27;;;;;;;;;;5050548;28;20078;-68
2023/05/04 06:53:06;;;;;;;15.98;13.38;;;;;;;;;;5050400;28;20378;-68
2023/05/04 06:55:32;;;;;;;15.85;14.02;;;;;;;;;;5050148;28;20604;-67
2023/05/04 06:57:58;;;;;;;17.80;13.75;;;;;;;;;;5050157;28;20520;-68
2023/05/04 07:00:24;;;;;;;16.80;13.65;;;;;;;;;;5050372;28;20025;-69
2023/05/04 07:02:52;;;;;;;15.93;13.40;;;;;;;;;;5049581;28;20063;-68
2023/05/04 07:05:18;;;;;;;17.65;12.95;;;;;;;;;;5050173;28;20479;-69
2023/05/04 07:07:44;;;;;;;14.50;12.93;;;;;;;;;;5050050;28;20375;-68
2023/05/04 07:10:10;;;;;;;17.73;13.82;;;;;;;;;;5049650;28;20029;-68
2023/05/04 07:12:36;;;;;;;16.85;13.32;;;;;;;;;;5049916;28;20021;-68
2023/05/04 07:15:02;;;;;;;15.38;13.77;;;;;;;;;;5049947;28;20033;-69
2023/05/04 07:17:30;;;;;;;19.05;13.45;;;;;;;;;;5049315;28;20025;-68
2023/05/04 07:19:56;;;;;;;18.50;15.60;;;;;;;;;;5050030;28;20056;-69
2023/05/04 07:22:22;;;;;;;17.95;13.93;;;;;;;;;;5049601;28;20495;-69
2023/05/04 07:24:48;;;;;;;14.65;12.50;;;;;;;;;;5049351;28;20479;-68
2023/05/04 07:27:14;;;;;;;16.45;13.13;;;;;;;;;;5049393;28;20563;-71
2023/05/04 07:29:40;;;;;;;14.68;11.95;;;;;;;;;;5049443;28;20090;-68
2023/05/04 07:32:07;;;;;;;16.98;12.38;;;;;;;;;;5049598;28;20082;-68
2023/05/04 07:34:34;;;;;;;18.30;13.25;;;;;;;;;;5049310;28;20027;-68
2023/05/04 07:37:00;;;;;;;15.20;12.95;;;;;;;;;;5049440;28;20021;-69
2023/05/04 07:39:26;;;;;;;17.15;13.07;;;;;;;;;;5049465;28;20067;-68
2023/05/04 07:41:53;;;;;;;15.02;12.70;;;;;;;;;;5049363;28;20059;-68
2023/05/04 07:44:19;;;;;;;16.20;12.75;;;;;;;;;;5049100;28;20115;-68
2023/05/04 07:46:45;;;;;;;15.02;12.45;;;;;;;;;;5049634;28;20017;-69
2023/05/04 07:49:11;;;;;;;15.77;12.48;;;;;;;;;;5049372;28;20506;-68
2023/05/04 07:51:38;;;;;;;13.77;12.13;;;;;;;;;;5046744;28;20470;-69
2023/05/04 07:54:04;;;;;;;18.20;12.80;;;;;;;;;;5023593;28;20045;-68
2023/05/04 07:56:30;;;;;;;13.70;12.05;;;;;;;;;;5026429;28;20030;-69
2023/05/04 07:58:56;;;;;;;14.00;11.50;;;;;;;;;;5028065;28;20597;-68
2023/05/04 08:01:24;;;;;;;13.48;12.07;;;;;;;;;;5020882;28;20022;-67
2023/05/04 08:03:50;;;;;;;14.02;12.13;;;;;;;;;;5023311;28;20049;-70
2023/05/04 08:06:16;;;;;;;16.73;11.90;;;;;;;;;;5022894;28;20371;-69
2023/05/04 08:08:43;;;;;;;17.45;12.85;;;;;;;;;;5020332;28;20049;-69
2023/05/04 08:11:13;;;;;;;16.55;12.80;;;;;;;;;;5027868;28;20126;-67
2023/05/04 08:13:40;;;;;;;15.90;13.10;;;;;;;;;;5036257;28;20471;-69
2023/05/04 08:16:06;;;;;;;16.85;13.30;;;;;;;;;;5023652;28;20048;-68
2023/05/04 08:18:32;;;;;;;17.02;12.63;;;;;;;;;;5034183;28;20043;-68
2023/05/04 08:20:58;;;;;;;14.68;11.65;;;;;;;;;;5034345;28;20060;-66
2023/05/04 08:23:24;;;;;;;15.30;12.13;;;;;;;;;;5034051;28;20041;-68
2023/05/04 08:25:51;;;;;;;19.17;14.02;;;;;;;;;;5025870;28;20029;-68
2023/05/04 08:28:17;;;;;;;18.45;13.85;;;;;;;;;;5026812;28;20041;-68
2023/05/04 08:30:43;;;;;;;16.58;13.07;;;;;;;;;;5029559;28;20021;-68
2023/05/04 08:33:09;;;;;;;23.20;12.23;;;;;;;;;;5023482;28;20084;-69
2023/05/04 08:35:36;;;;;;;15.93;12.18;;;;;;;;;;5030920;28;20033;-69
2023/05/04 08:38:02;;;;;;;15.55;11.50;;;;;;;;;;5024683;28;20029;-68
2023/05/04 08:40:29;;;;;;;16.33;11.35;;;;;;;;;;5021109;28;20021;-69
2023/05/04 08:42:55;;;;;;;12.48;10.80;;;;;;;;;;5023697;28;20041;-67
2023/05/04 08:45:21;;;;;;;15.15;11.30;;;;;;;;;;5024935;28;20052;-68
2023/05/04 08:47:47;;;;;;;18.02;13.60;;;;;;;;;;5017528;28;20029;-68
2023/05/04 08:50:13;;;;;;;16.85;13.27;;;;;;;;;;5030284;28;20040;-68
2023/05/04 08:52:46;;;;;;;19.85;12.60;;;;;;;;;;5015011;28;20053;-68
2023/05/04 08:55:13;;;;;;;15.80;13.13;;;;;;;;;;5028821;28;20041;-69
2023/05/04 08:57:41;;;;;;;15.88;11.95;;;;;;;;;;5021156;28;20088;-70
2023/05/04 09:00:08;;;;;;;16.08;11.88;;;;;;;;;;5034268;28;20025;-68
2023/05/04 09:02:34;;;;;;;15.48;12.35;;;;;;;;;;5048701;28;20058;-68
2023/05/04 09:05:01;;;;;;;14.90;12.98;;;;;;;;;;5048185;28;20033;-67
2023/05/04 09:07:27;;;;;;;15.20;11.75;;;;;;;;;;5048578;28;20029;-68
2023/05/04 09:09:53;;;;;;;14.93;12.88;;;;;;;;;;5048127;28;20021;-68
2023/05/04 09:12:19;;;;;;;19.50;15.50;;;;;;;;;;5048775;28;20027;-68
2023/05/04 09:14:46;;;;;;;21.35;15.15;;;;;;;;;;5042357;28;20025;-68
2023/05/04 09:17:16;;;;;;;19.35;16.58;;;;;;;;;;5028841;28;20028;-69
2023/05/04 09:19:43;;;;;;;25.05;18.20;;;;;;;;;;5035525;28;20036;-68
2023/05/04 09:22:16;;;;;;;20.75;15.85;;;;;;;;;;5047849;28;20036;-69
2023/05/04 09:24:42;;;;;;;15.93;14.02;;;;;;;;;;5048537;28;20091;-68
2023/05/04 09:27:12;;;;;;;18.60;13.40;;;;;;;;;;5047781;28;20105;-70
2023/05/04 09:29:39;;;;;;;25.25;19.17;;;;;;;;;;5048107;28;20059;-69
2023/05/04 09:32:06;;;;;;;24.88;18.90;;;;;;;;;;5049657;28;20364;-68
2023/05/04 09:34:33;;;;;;;18.05;15.45;;;;;;;;;;5052465;28;20052;-68
2023/05/04 09:37:02;;;;;;;20.95;15.23;;;;;;;;;;5051838;28;20079;-68
2023/05/04 09:39:29;;;;;;;35.85;25.13;;;;;;;;;;5052000;28;20067;-69
2023/05/04 09:41:55;;;;;;;22.70;18.42;;;;;;;;;;5051610;28;20444;-69
2023/05/04 09:44:22;;;;;;;25.35;17.77;;;;;;;;;;5051420;28;20395;-68
2023/05/04 09:46:55;;;;;;;19.45;15.52;;;;;;;;;;5048411;28;20472;-69
2023/05/04 09:49:31;;;;;;;20.20;15.18;;;;;;;;;;5041940;28;20079;-69
2023/05/04 09:52:01;;;;;;;35.67;24.33;;;;;;;;;;5051513;28;20029;-70
2023/05/04 09:54:33;;;;;;;18.48;15.85;;;;;;;;;;5051035;28;20127;-69
2023/05/04 09:57:05;;;;;;;20.02;16.38;;;;;;;;;;5051421;28;20033;-69
2023/05/04 09:59:32;;;;;;;18.35;13.93;;;;;;;;;;5051651;28;20025;-68
2023/05/04 10:01:59;;;;;;;17.35;13.93;;;;;;;;;;5043535;28;20542;-69
2023/05/04 10:04:25;;;;;;;24.52;18.58;;;;;;;;;;5046112;28;20044;-69
2023/05/04 10:06:52;;;;;;;20.77;16.80;;;;;;;;;;5051455;28;20410;-70
2023/05/04 10:09:19;;;;;;;22.92;16.63;;;;;;;;;;5051204;28;20036;-68
2023/05/04 10:11:45;;;;;;;17.45;15.25;;;;;;;;;;5051622;28;20025;-69
2023/05/04 10:14:12;;;;;;;18.67;15.48;;;;;;;;;;5051011;28;20375;-69
2023/05/04 10:16:41;;;;;;;18.77;16.05;;;;;;;;;;5051460;28;20051;-70
2023/05/04 10:19:21;;;;;;;17.90;15.63;;;;;;;;;;5050783;28;20503;-69
2023/05/04 10:21:47;;;;;;;15.27;11.73;;;;;;;;;;5051179;28;20032;-70
2023/05/04 10:24:22;;;;;;;15.50;13.88;;;;;;;;;;5050727;28;20037;-69
2023/05/04 10:27:02;;;;;;;15.85;13.10;;;;;;;;;;5051277;28;20347;-69
2023/05/04 10:29:29;;;;;;;16.77;14.27;;;;;;;;;;5050698;28;20104;-69
2023/05/04 10:31:55;;;;;;;16.70;14.52;;;;;;;;;;5050767;28;20032;-69
2023/05/04 10:34:29;;;;;;;17.23;14.07;;;;;;;;;;5023970;28;20126;-68
2023/05/04 10:36:55;;;;;;;18.73;14.73;;;;;;;;;;5037544;28;20033;-69
2023/05/04 10:39:26;;;;;;;15.65;13.70;;;;;;;;;;5050613;28;20021;-67
2023/05/04 10:42:02;;;;;;;15.60;13.60;;;;;;;;;;5050430;28;20100;-68
2023/05/04 10:44:28;;;;;;;16.63;12.77;;;;;;;;;;5049625;28;20044;-69
2023/05/04 10:47:07;;;;;;;18.15;15.07;;;;;;;;;;5047197;28;20014;-69
2023/05/04 10:49:34;;;;;;;14.30;12.80;;;;;;;;;;5042914;28;20033;-69
2023/05/04 10:52:18;;;;;;;15.85;11.43;;;;;;;;;;5050378;28;20025;-68
2023/05/04 10:54:44;;;;;;;12.95;10.23;;;;;;;;;;5048488;28;20083;-68
2023/05/04 10:57:16;;;;;;;13.25;11.80;;;;;;;;;;5038584;28;20032;-70
2023/05/04 10:59:53;;;;;;;13.63;10.65;;;;;;;;;;5050163;28;20021;-70
2023/05/04 11:02:23;;;;;;;13.40;10.88;;;;;;;;;;5050021;28;20411;-69
2023/05/04 11:05:03;;;;;;;13.10;10.93;;;;;;;;;;5049795;28;20043;-70
2023/05/04 11:07:33;;;;;;;12.40;9.07;;;;;;;;;;5036815;28;20485;-70
2023/05/04 11:09:59;;;;;;;12.95;10.32;;;;;;;;;;5024793;28;20032;-69
2023/05/04 11:12:25;;;;;;;15.35;11.82;;;;;;;;;;5050232;28;20025;-70
2023/05/04 11:14:51;;;;;;;12.02;10.57;;;;;;;;;;5049506;28;20112;-71
2023/05/04 11:17:17;;;;;;;11.95;10.70;;;;;;;;;;5050417;28;20099;-68
2023/05/04 11:19:50;;;;;;;14.48;10.25;;;;;;;;;;5050033;28;20025;-70
2023/05/04 11:22:19;;;;;;;11.45;10.32;;;;;;;;;;5048434;28;20033;-68
2023/05/04 11:24:47;;;;;;;12.40;10.55;;;;;;;;;;5037327;28;20044;-68
2023/05/04 11:27:29;;;;;;;12.23;10.10;;;;;;;;;;5048647;28;20024;-68
2023/05/04 11:30:06;;;;;;;11.60;10.40;;;;;;;;;;5039328;28;20107;-69
2023/05/04 11:32:38;;;;;;;13.27;10.57;;;;;;;;;;5044585;28;20120;-68
2023/05/04 11:35:07;;;;;;;15.02;10.68;;;;;;;;;;5041993;28;20022;-70
2023/05/04 11:37:39;;;;;;;16.65;10.40;;;;;;;;;;5047161;28;20454;-70
2023/05/04 11:40:09;;;;;;;11.70;9.50;;;;;;;;;;5047847;28;20061;-70
2023/05/04 11:42:36;;;;;;;13.98;11.13;;;;;;;;;;5047930;28;20055;-68
2023/05/04 11:45:02;;;;;;;11.25;10.15;;;;;;;;;;5047623;28;20029;-68
2023/05/04 11:47:28;;;;;;;18.35;12.70;;;;;;;;;;5047829;28;20525;-69
2023/05/04 11:49:55;;;;;;;14.38;10.07;;;;;;;;;;5047671;28;20025;-68
2023/05/04 11:52:25;;;;;;;11.55;10.50;;;;;;;;;;5047706;28;20384;-68
2023/05/04 11:54:56;;;;;;;14.68;10.70;;;;;;;;;;5047127;28;20053;-70
2023/05/04 11:57:22;;;;;;;16.13;11.60;;;;;;;;;;5047748;28;20020;-68
2023/05/04 11:59:48;;;;;;;15.30;11.82;;;;;;;;;;5047742;28;20033;-69
2023/05/04 12:02:15;;;;;;;14.80;11.68;;;;;;;;;;5047473;28;20055;-69
2023/05/04 12:04:41;;;;;;;13.13;11.68;;;;;;;;;;5046867;28;20061;-68
2023/05/04 12:07:07;;;;;;;18.27;12.30;;;;;;;;;;5047608;28;20486;-68
2023/05/04 12:09:43;;;;;;;13.35;11.20;;;;;;;;;;5047574;28;20039;-69
2023/05/04 12:12:09;;;;;;;13.48;10.88;;;;;;;;;;5047591;28;20467;-69
2023/05/04 12:14:45;;;;;;;13.38;11.63;;;;;;;;;;5047353;28;20037;-68
2023/05/04 12:17:11;;;;;;;19.50;13.98;;;;;;;;;;5047125;28;20602;-69
2023/05/04 12:19:46;;;;;;;13.48;12.07;;;;;;;;;;5047225;28;20522;-69
2023/05/04 12:22:13;;;;;;;15.32;12.80;;;;;;;;;;5047676;28;20033;-68
2023/05/04 12:24:39;;;;;;;14.73;13.20;;;;;;;;;;5047487;28;20060;-68
2023/05/04 12:27:11;;;;;;;16.92;14.05;;;;;;;;;;5047411;28;20443;-69
2023/05/04 12:29:37;;;;;;;14.85;11.90;;;;;;;;;;5046805;28;20082;-69
2023/05/04 12:32:03;;;;;;;18.02;14.40;;;;;;;;;;5047311;28;20116;-69
2023/05/04 12:34:30;;;;;;;14.45;12.93;;;;;;;;;;5047491;28;20028;-68
2023/05/04 12:36:56;;;;;;;33.72;24.95;;;;;;;;;;5046585;28;20048;-68
2023/05/04 12:39:22;;;;;;;28.83;22.35;;;;;;;;;;5047514;28;20044;-69
2023/05/04 12:41:49;;;;;;;22.70;14.27;;;;;;;;;;5046760;28;20523;-68
2023/05/04 12:44:15;;;;;;;15.05;13.35;;;;;;;;;;5047374;28;20055;-69
2023/05/04 12:46:45;;;;;;;13.77;12.48;;;;;;;;;;5047021;28;20021;-68
2023/05/04 12:49:12;;;;;;;13.20;11.85;;;;;;;;;;5047129;28;20052;-69
2023/05/04 12:51:38;;;;;;;18.65;16.02;;;;;;;;;;5046723;28;20032;-69
2023/05/04 12:54:04;;;;;;;17.67;14.75;;;;;;;;;;5047041;28;20040;-69
2023/05/04 12:56:31;;;;;;;16.42;13.77;;;;;;;;;;5046542;28;20021;-70
2023/05/04 12:58:57;;;;;;;15.20;13.70;;;;;;;;;;5046756;28;20032;-68
2023/05/04 13:01:23;;;;;;;18.80;13.93;;;;;;;;;;5046778;28;20028;-70
2023/05/04 13:03:49;;;;;;;18.10;14.50;;;;;;;;;;5046974;28;20029;-69
2023/05/04 13:06:15;;;;;;;21.40;15.50;;;;;;;;;;5046969;28;20813;-68
2023/05/04 13:08:41;;;;;;;15.18;13.68;;;;;;;;;;5050549;28;20032;-69
2023/05/04 13:11:08;;;;;;;16.33;14.00;;;;;;;;;;5050533;28;20379;-69
2023/05/04 13:13:34;;;;;;;16.77;14.77;;;;;;;;;;5050627;28;20029;-70
2023/05/04 13:16:00;;;;;;;18.08;15.27;;;;;;;;;;5050251;28;20456;-69
2023/05/04 13:18:27;;;;;;;15.95;14.35;;;;;;;;;;5050854;28;20422;-68
2023/05/04 13:20:53;;;;;;;16.77;12.52;;;;;;;;;;5049963;28;20028;-69
2023/05/04 13:23:20;;;;;;;17.17;15.35;;;;;;;;;;5050312;28;20033;-67
2023/05/04 13:25:46;;;;;;;17.38;15.57;;;;;;;;;;5050461;28;20501;-68
2023/05/04 13:28:12;;;;;;;19.92;16.95;;;;;;;;;;5050616;28;20378;-69
2023/05/04 13:30:39;;;;;;;28.15;17.10;;;;;;;;;;5050031;28;20029;-70
2023/05/04 13:33:05;;;;;;;20.08;18.00;;;;;;;;;;5050454;28;20544;-68
2023/05/04 13:35:31;;;;;;;18.10;16.30;;;;;;;;;;5042635;28;20033;-66
2023/05/04 13:37:57;;;;;;;22.90;18.73;;;;;;;;;;5043394;28;20036;-63
2023/05/04 13:40:23;;;;;;;21.05;18.88;;;;;;;;;;5050060;28;20486;-68
2023/05/04 13:42:49;;;;;;;34.75;28.08;;;;;;;;;;5050033;28;20138;-69
2023/05/04 13:45:15;;;;;;;21.05;18.83;;;;;;;;;;5018267;28;20495;-69
2023/05/04 13:47:41;;;;;;;23.48;19.25;;;;;;;;;;5030347;28;20063;-68
2023/05/04 13:50:08;;;;;;;43.22;33.72;;;;;;;;;;5049863;28;20029;-69
2023/05/04 13:52:34;;;;;;;26.83;21.77;;;;;;;;;;5049749;28;20033;-68
2023/05/04 13:55:00;;;;;;;24.85;20.65;;;;;;;;;;5042275;28;20139;-69
2023/05/04 13:57:29;;;;;;;20.85;18.63;;;;;;;;;;5044252;28;20071;-67
2023/05/04 13:59:55;;;;;;;29.17;23.13;;;;;;;;;;5049341;28;20132;-69
2023/05/04 14:02:22;;;;;;;22.58;19.67;;;;;;;;;;5049647;28;20442;-69
2023/05/04 14:04:49;;;;;;;36.08;28.80;;;;;;;;;;5049817;28;20033;-69
2023/05/04 14:07:15;;;;;;;20.25;18.15;;;;;;;;;;5049761;28;20483;-69
2023/05/04 14:09:42;;;;;;;21.25;19.02;;;;;;;;;;5049677;28;20502;-68
2023/05/04 14:12:09;;;;;;;19.15;17.20;;;;;;;;;;5049194;28;20071;-69
2023/05/04 14:14:35;;;;;;;20.48;17.92;;;;;;;;;;5049562;28;20033;-68
2023/05/04 14:17:01;;;;;;;19.52;17.08;;;;;;;;;;5049205;28;20025;-69